createdAt,value
2022-10-01T03:03:01.985Z,13.40
2022-10-01T03:08:03.704Z,13.40
2022-10-01T03:13:05.419Z,12.55
2022-10-01T03:18:08.511Z,12.80
2022-10-01T03:23:10.192Z,12.35
2022-10-01T03:28:11.971Z,12.85
2022-10-01T03:33:15.015Z,12.85
2022-10-01T03:38:16.727Z,11.77
2022-10-01T03:43:18.588Z,12.40
2022-10-01T03:48:21.803Z,11.93
2022-10-01T03:53:23.768Z,11.82
2022-10-01T03:58:25.821Z,11.95
2022-10-01T04:03:28.885Z,12.43
2022-10-01T04:08:30.578Z,14.13
2022-10-01T04:13:32.341Z,12.25
2022-10-01T04:18:35.581Z,12.82
2022-10-01T04:23:37.221Z,13.65
2022-10-01T04:28:38.969Z,13.60
2022-10-01T04:33:41.990Z,13.80
2022-10-01T04:38:43.683Z,13.85
2022-10-01T04:43:45.367Z,14.45
2022-10-01T04:48:49.247Z,13.55
2022-10-01T04:53:50.989Z,14.63
2022-10-01T04:58:52.677Z,14.15
2022-10-01T05:03:55.796Z,14.23
2022-10-01T05:08:57.476Z,13.20
2022-10-01T05:13:59.149Z,13.85
2022-10-01T05:19:02.269Z,13.20
2022-10-01T05:24:04.123Z,12.85
2022-10-01T05:29:05.801Z,13.23
2022-10-01T05:34:08.831Z,13.45
2022-10-01T05:39:10.562Z,12.63
2022-10-01T05:44:12.210Z,12.30
2022-10-01T05:49:15.235Z,13.52
2022-10-01T05:54:16.940Z,13.07
2022-10-01T05:59:18.577Z,13.55
2022-10-01T06:04:21.624Z,12.05
2022-10-01T06:09:23.309Z,12.10
2022-10-01T06:14:25.054Z,13.02
2022-10-01T06:19:28.240Z,12.85
2022-10-01T06:24:29.974Z,12.45
2022-10-01T06:29:31.708Z,15.07
2022-10-01T06:34:34.857Z,13.20
2022-10-01T06:45:48.153Z,13.02
2022-10-01T06:51:16.655Z,12.40
2022-10-01T06:56:27.078Z,13.45
2022-10-01T07:01:28.898Z,12.65
2022-10-01T07:06:32.259Z,12.07
2022-10-01T07:11:36.738Z,12.05
2022-10-01T07:16:39.230Z,12.07
2022-10-01T07:21:49.199Z,11.40
2022-10-01T07:26:52.924Z,11.02
2022-10-01T07:31:57.698Z,10.85
2022-10-01T07:37:00.888Z,11.60
2022-10-01T07:42:05.492Z,12.23
2022-10-01T07:47:07.395Z,11.95
2022-10-01T07:52:13.309Z,10.57
2022-10-01T07:57:18.464Z,11.60
2022-10-01T08:02:20.214Z,11.98
2022-10-01T08:07:23.300Z,11.60
2022-10-01T08:12:24.967Z,11.52
2022-10-01T08:17:29.498Z,11.23
2022-10-01T08:28:26.568Z,11.93
2022-10-01T08:33:28.262Z,11.63
2022-10-01T08:38:30.167Z,11.73
2022-10-01T08:43:37.145Z,11.15
2022-10-01T08:48:46.397Z,11.20
2022-10-01T08:53:53.175Z,10.23
2022-10-01T08:58:59.674Z,10.50
2022-10-01T09:04:01.514Z,11.02
2022-10-01T09:09:21.398Z,11.40
2022-10-01T09:14:34.173Z,10.43
2022-10-01T09:19:58.556Z,10.63
2022-10-01T09:25:11.853Z,10.27
2022-10-01T09:30:21.811Z,10.18
2022-10-01T09:35:37.449Z,9.02
2022-10-01T09:40:46.148Z,10.25
2022-10-01T09:45:49.549Z,9.75
2022-10-01T09:50:54.601Z,9.40
2022-10-01T09:55:59.991Z,9.43
2022-10-01T10:01:03.129Z,9.38
2022-10-01T10:11:25.204Z,8.65
2022-10-01T10:16:30.354Z,8.93
2022-10-01T10:21:33.951Z,8.57
2022-10-01T10:26:38.091Z,8.90
2022-10-01T10:31:43.431Z,8.35
2022-10-01T10:41:51.139Z,7.82
2022-10-01T10:46:59.302Z,7.97
2022-10-01T10:52:02.085Z,8.70
2022-10-01T10:57:18.653Z,8.48
2022-10-01T11:02:23.787Z,7.50
2022-10-01T11:12:49.052Z,8.30
2022-10-01T11:18:22.355Z,9.15
2022-10-01T11:23:42.153Z,8.30
2022-10-01T11:28:52.505Z,8.82
2022-10-01T11:34:07.625Z,7.43
2022-10-01T11:39:13.377Z,8.60
2022-10-01T11:44:21.843Z,6.90
2022-10-01T11:49:56.034Z,7.65
2022-10-01T11:55:09.965Z,7.82
2022-10-01T12:00:14.046Z,8.15
2022-10-01T12:05:20.881Z,7.25
2022-10-01T12:10:34.855Z,6.85
2022-10-01T12:15:44.718Z,7.22
2022-10-01T12:20:50.346Z,6.70
2022-10-01T12:25:56.976Z,6.30
2022-10-01T12:31:04.568Z,5.82
2022-10-01T12:36:17.230Z,7.07
2022-10-01T12:41:31.171Z,7.55
2022-10-01T12:46:38.925Z,6.03
2022-10-01T12:51:45.079Z,6.47
2022-10-01T12:56:54.044Z,6.82
2022-10-01T13:02:10.603Z,6.90
2022-10-01T13:07:31.602Z,6.85
2022-10-01T13:12:47.827Z,6.72
2022-10-01T13:17:55.096Z,6.65
2022-10-01T13:23:07.116Z,6.10
2022-10-01T13:28:16.607Z,7.25
2022-10-01T13:33:23.288Z,6.78
2022-10-01T13:38:39.010Z,6.78
2022-10-01T13:43:49.654Z,5.85
2022-10-01T13:48:51.784Z,5.95
2022-10-01T13:54:00.713Z,6.10
2022-10-01T13:59:03.201Z,6.28
2022-10-01T14:04:50.811Z,5.62
2022-10-01T14:10:01.232Z,9.43
2022-10-01T14:15:14.696Z,6.20
2022-10-01T14:20:46.589Z,6.05
2022-10-01T14:31:25.721Z,7.03
2022-10-01T14:36:37.215Z,5.68
2022-10-01T14:41:39.336Z,5.40
2022-10-01T14:46:41.019Z,6.35
2022-10-01T14:51:51.764Z,5.78
2022-10-01T14:56:54.734Z,5.93
2022-10-01T15:02:02.036Z,6.10
2022-10-01T15:07:16.384Z,6.68
2022-10-01T15:12:21.368Z,6.50
2022-10-01T15:17:26.786Z,5.85
2022-10-01T15:22:33.051Z,6.15
2022-10-01T15:27:59.883Z,6.57
2022-10-01T15:33:02.411Z,7.90
2022-10-01T15:38:06.060Z,6.05
2022-10-01T15:43:24.563Z,6.85
2022-10-01T15:48:29.923Z,6.90
2022-10-01T15:53:34.231Z,7.25
2022-10-01T15:58:42.533Z,6.85
2022-10-01T16:03:52.308Z,7.05
2022-10-01T16:09:03.480Z,8.00
2022-10-01T16:14:23.997Z,7.28
2022-10-01T16:19:29.573Z,7.75
2022-10-01T16:24:42.388Z,7.40
2022-10-01T16:29:51.003Z,6.95
2022-10-01T16:34:52.761Z,7.37
2022-10-01T16:39:55.913Z,7.60
2022-10-01T16:44:57.672Z,6.60
2022-10-01T16:49:59.627Z,7.18
2022-10-01T16:55:03.004Z,7.10
2022-10-01T17:00:05.300Z,6.68
2022-10-01T17:05:16.001Z,6.90
2022-10-01T17:10:23.475Z,6.65
2022-10-01T17:15:26.726Z,7.10
2022-10-01T17:20:29.207Z,7.03
2022-10-01T17:25:36.369Z,6.28
2022-10-01T17:30:39.580Z,6.60
2022-10-01T17:35:43.007Z,6.57
2022-10-01T17:40:46.695Z,23.85
2022-10-01T17:45:58.514Z,20.15
2022-10-01T17:51:02.166Z,8.10
2022-10-01T17:56:08.017Z,8.65
2022-10-01T18:01:11.555Z,8.48
2022-10-01T18:06:13.641Z,7.95
2022-10-01T18:16:34.360Z,11.00
2022-10-01T18:21:36.525Z,9.52
2022-10-01T18:26:38.685Z,7.90
2022-10-01T18:31:42.609Z,8.95
2022-10-01T18:36:54.825Z,8.00
2022-10-01T18:41:57.103Z,8.00
2022-10-01T18:47:14.796Z,7.95
2022-10-01T18:52:35.497Z,8.18
2022-10-01T18:57:52.247Z,7.68
2022-10-01T19:03:20.144Z,7.70
2022-10-01T19:08:37.424Z,8.20
2022-10-01T19:13:47.423Z,8.65
2022-10-01T19:19:30.889Z,8.75
2022-10-01T19:24:45.997Z,9.20
2022-10-01T19:29:59.408Z,8.20
2022-10-01T19:35:05.931Z,8.80
2022-10-01T19:50:46.348Z,8.20
2022-10-01T19:55:51.567Z,8.20
2022-10-01T20:06:02.787Z,7.47
2022-10-01T20:11:11.936Z,7.70
2022-10-01T20:16:22.061Z,7.12
2022-10-01T20:21:39.084Z,7.95
2022-10-01T20:26:46.032Z,7.75
2022-10-01T20:31:57.146Z,7.30
2022-10-01T20:37:11.755Z,7.50
2022-10-01T20:42:17.504Z,8.17
2022-10-01T20:47:27.619Z,7.90
2022-10-01T20:52:37.779Z,7.37
2022-10-01T20:57:47.190Z,8.23
2022-10-01T21:02:53.691Z,7.28
2022-10-01T21:08:02.725Z,6.82
2022-10-01T21:13:14.766Z,6.72
